Time;durP1;ratioP1;P1;durP2;ratioP2;P2;SDS_P1;SDS_P2;PMS_P1;PMS_P2;Temp;Humidity;BMP_temperature;BMP_pressure;BME280_temperature;BME280_humidity;BME280_pressure;Samples;Min_cycle;Max_cycle;Signal;HPM_P1;HPM_P2
2023/10/09 00:01:04;;;;;;;6.45;2.70;;;;;;;17.29;61.56;100684.97;4980836;28;20081;-50
2023/10/09 00:03:31;;;;;;;7.13;2.92;;;;;;;17.28;61.86;100666.66;4988851;28;20514;-47
2023/10/09 00:05:58;;;;;;;7.82;2.97;;;;;;;17.26;61.60;100669.31;4982417;28;20046;-48
2023/10/09 00:08:34;;;;;;;7.10;3.08;;;;;;;17.24;61.67;100670.25;4991078;28;20054;-48
2023/10/09 00:11:19;;;;;;;6.53;2.90;;;;;;;17.23;62.27;100668.53;4991279;28;20050;-51
2023/10/09 00:13:48;;;;;;;7.65;2.90;;;;;;;17.19;62.08;100668.59;5002748;28;20045;-48
2023/10/09 00:16:23;;;;;;;8.35;3.22;;;;;;;17.19;62.37;100667.75;5005739;28;20133;-48
2023/10/09 00:18:50;;;;;;;6.55;3.22;;;;;;;17.15;61.89;100656.47;5005785;28;20426;-47
2023/10/09 00:21:20;;;;;;;8.13;2.97;;;;;;;17.13;62.25;100668.72;5006265;28;20634;-49
2023/10/09 00:24:05;;;;;;;6.90;3.35;;;;;;;17.10;62.05;100663.53;5001547;28;20390;-54
2023/10/09 00:26:42;;;;;;;8.57;4.00;;;;;;;17.08;62.41;100665.31;5007057;28;20595;-50
2023/10/09 00:29:15;;;;;;;6.05;3.22;;;;;;;17.05;62.53;100665.34;5001463;28;20046;-46
2023/10/09 00:31:49;;;;;;;6.80;2.80;;;;;;;17.04;62.46;100659.25;5003493;28;20074;-47
2023/10/09 00:34:21;;;;;;;5.97;2.92;;;;;;;17.02;62.59;100665.44;5004034;28;20552;-46
2023/10/09 00:36:50;;;;;;;6.68;3.30;;;;;;;17.01;61.97;100675.03;5005074;28;20045;-47
2023/10/09 00:39:33;;;;;;;6.75;2.92;;;;;;;17.00;61.67;100678.53;5001353;28;20049;-48
2023/10/09 00:42:01;;;;;;;8.90;3.30;;;;;;;16.98;62.08;100679.47;5002331;28;20481;-48
2023/10/09 00:44:37;;;;;;;7.32;2.58;;;;;;;16.96;61.76;100682.94;5006716;28;20426;-47
2023/10/09 00:47:20;;;;;;;6.60;2.95;;;;;;;16.94;62.13;100684.75;5009284;28;20157;-45
2023/10/09 00:49:49;;;;;;;;;;;;;;;16.76;61.98;100679.84;5009393;28;20125;-46
2023/10/09 00:52:24;;;;;;;7.45;2.70;;;;;;;16.88;62.04;100684.00;5003074;28;20053;-46
2023/10/09 00:54:51;;;;;;;6.78;2.95;;;;;;;16.85;62.27;100684.91;5005853;28;20046;-48
2023/10/09 00:57:24;;;;;;;6.88;2.80;;;;;;;16.85;62.10;100682.28;5005641;28;20046;-47
2023/10/09 01:00:08;;;;;;;5.80;2.70;;;;;;;16.83;62.29;100677.09;5008141;28;20537;-47
2023/10/09 01:02:35;;;;;;;8.20;3.42;;;;;;;16.80;61.90;100665.81;5007306;28;20092;-46
2023/10/09 01:05:18;;;;;;;6.65;2.90;;;;;;;16.81;62.11;100667.53;5001433;28;20132;-47
2023/10/09 01:07:45;;;;;;;;;;;;;;;16.64;62.35;100662.63;5001699;28;20411;-46
2023/10/09 01:10:15;;;;;;;7.60;4.15;;;;;;;16.75;62.29;100658.06;4996023;28;19922;-49
2023/10/09 01:12:44;;;;;;;5.90;2.65;;;;;;;16.77;62.42;100658.03;4994658;28;20069;-48
2023/10/09 01:15:36;;;;;;;5.43;2.75;;;;;;;16.76;61.56;100669.41;5003172;28;20125;-49
2023/10/09 01:17:59;;;;;;;5.88;2.75;;;;;;;16.75;62.09;100667.69;5004831;28;20054;-48
2023/10/09 01:20:30;;;;;;;5.90;3.15;;;;;;;16.73;62.06;100661.59;5000588;28;20054;-49
2023/10/09 01:23:01;;;;;;;6.63;3.50;;;;;;;16.73;62.08;100669.44;4999304;28;20100;-47
2023/10/09 01:25:43;;;;;;;6.95;2.88;;;;;;;16.70;61.93;100671.25;4997554;28;20534;-47
2023/10/09 01:28:10;;;;;;;7.03;3.40;;;;;;;16.69;61.85;100659.03;5000203;28;20046;-47
2023/10/09 01:30:41;;;;;;;7.10;2.70;;;;;;;16.67;62.27;100655.59;4999043;28;20058;-47
2023/10/09 01:33:22;;;;;;;5.72;2.78;;;;;;;16.67;62.06;100660.84;4999011;28;20882;-47
2023/10/09 01:35:50;;;;;;;6.05;2.70;;;;;;;16.66;62.44;100651.28;4978141;28;20054;-48
2023/10/09 01:38:16;;;;;;;8.45;3.47;;;;;;;16.64;62.77;100653.03;4992477;28;20050;-48
2023/10/09 01:40:44;;;;;;;6.72;3.65;;;;;;;16.63;62.30;100653.06;5005971;28;20053;-51
2023/10/09 01:43:12;;;;;;;6.75;2.80;;;;;;;16.61;62.55;100666.16;5004031;28;20050;-50
2023/10/09 01:45:42;;;;;;;6.75;2.97;;;;;;;16.59;62.68;100657.50;5007967;28;20057;-49
2023/10/09 01:48:11;;;;;;;7.22;3.42;;;;;;;16.59;62.83;100652.28;5004058;28;20108;-46
2023/10/09 01:50:41;;;;;;;8.43;3.10;;;;;;;16.57;62.42;100654.91;5007204;28;20160;-49
2023/10/09 01:53:08;;;;;;;7.75;2.95;;;;;;;16.55;62.28;100648.84;5003482;28;20053;-47
2023/10/09 01:55:39;;;;;;;7.10;3.10;;;;;;;16.52;62.47;100632.34;5003941;28;20061;-47
2023/10/09 01:58:23;;;;;;;9.85;2.85;;;;;;;16.51;62.41;100635.88;5005923;28;20120;-49
2023/10/09 02:00:55;;;;;;;7.30;3.80;;;;;;;16.48;62.40;100638.53;5005849;28;20546;-47
2023/10/09 02:03:24;;;;;;;9.05;3.10;;;;;;;16.47;62.21;100640.28;4992940;28;20045;-47
2023/10/09 02:05:53;;;;;;;7.05;2.92;;;;;;;16.47;62.54;100639.41;5016790;28;20516;-49
2023/10/09 02:08:35;;;;;;;7.93;3.08;;;;;;;16.45;62.22;100639.44;5007285;28;20553;-50
2023/10/09 02:11:02;;;;;;;7.00;2.70;;;;;;;16.44;62.21;100643.81;5012959;28;20129;-48
2023/10/09 02:13:29;;;;;;;7.90;2.95;;;;;;;16.45;62.07;100642.06;5016187;28;20061;-52
2023/10/09 02:18:59;;;;;;;5.47;2.85;;;;;;;16.42;62.51;100647.34;5012066;28;20136;-47
2023/10/09 02:21:33;;;;;;;4.80;2.70;;;;;;;16.42;62.21;100655.19;4993392;28;20058;-47
2023/10/09 02:24:07;;;;;;;5.72;2.90;;;;;;;16.41;62.48;100648.22;5011906;28;20122;-48
2023/10/09 02:31:51;;;;;;;8.43;3.42;;;;;;;16.51;61.56;100639.31;5041486;28;20396;-48
2023/10/09 02:34:22;;;;;;;8.50;3.55;;;;;;;16.45;62.15;100629.84;5036640;28;20049;-46
2023/10/09 02:36:49;;;;;;;6.80;2.80;;;;;;;16.42;61.87;100619.44;5020334;28;20540;-49
2023/10/09 02:39:22;;;;;;;7.15;3.20;;;;;;;16.41;62.00;100606.38;5031611;28;20056;-47
2023/10/09 02:41:55;;;;;;;7.20;3.13;;;;;;;16.37;61.61;100609.94;5040730;28;20053;-47
2023/10/09 02:44:25;;;;;;;7.75;3.50;;;;;;;16.35;62.10;100609.97;5038083;28;20048;-47
2023/10/09 02:46:57;;;;;;;6.03;2.72;;;;;;;16.33;62.40;100601.31;5037458;28;20044;-46
2023/10/09 02:49:26;;;;;;;6.07;2.58;;;;;;;16.32;62.11;100612.66;5032492;28;20050;-47
2023/10/09 02:51:53;;;;;;;7.60;3.30;;;;;;;16.31;61.88;100613.53;5017096;28;20073;-48
2023/10/09 02:57:07;;;;;;;5.93;3.05;;;;;;;16.26;62.07;100602.31;5081770;27;20390;-47
2023/10/09 02:59:37;;;;;;;6.03;3.47;;;;;;;16.25;62.19;100597.97;5077636;28;20052;-46
2023/10/09 03:02:04;;;;;;;7.57;3.13;;;;;;;16.24;62.10;100599.72;5079294;28;20052;-47
2023/10/09 03:04:30;;;;;;;7.65;2.97;;;;;;;16.23;62.25;100604.97;5080685;28;20485;-48
2023/10/09 03:06:58;;;;;;;6.32;2.85;;;;;;;16.22;61.82;100595.41;5058989;28;20102;-47
2023/10/09 03:09:27;;;;;;;7.63;3.00;;;;;;;16.21;61.76;100610.22;5077085;28;20507;-45
2023/10/09 03:12:02;;;;;;;6.45;2.95;;;;;;;16.18;61.64;100602.44;5077407;28;20048;-49
2023/10/09 03:14:31;;;;;;;6.85;3.10;;;;;;;16.18;61.61;100610.28;5060087;28;20076;-49
2023/10/09 03:16:58;;;;;;;6.85;2.65;;;;;;;16.15;61.64;100626.84;5047842;28;20048;-46
2023/10/09 03:19:26;;;;;;;8.45;2.83;;;;;;;16.14;62.25;100630.38;5079952;28;20496;-48
2023/10/09 03:21:53;;;;;;;7.78;3.50;;;;;;;16.13;61.75;100628.66;5048245;28;20056;-46
2023/10/09 03:24:22;;;;;;;6.25;3.05;;;;;;;16.13;62.17;100627.78;5061784;28;20045;-45
2023/10/09 03:26:55;;;;;;;6.38;2.92;;;;;;;16.12;62.00;100628.66;5077281;28;20048;-50
2023/10/09 03:29:23;;;;;;;7.38;2.83;;;;;;;16.11;62.03;100624.34;5067731;28;20123;-49
2023/10/09 03:31:51;;;;;;;5.47;2.67;;;;;;;16.09;61.94;100624.38;5081535;28;20070;-44
2023/10/09 03:34:18;;;;;;;6.95;3.55;;;;;;;16.07;61.73;100618.28;5076321;28;20044;-46
2023/10/09 03:36:47;;;;;;;5.95;3.03;;;;;;;16.07;62.23;100628.75;5065692;28;20049;-49
2023/10/09 03:39:24;;;;;;;7.20;2.80;;;;;;;16.05;62.20;100630.53;5070018;28;20044;-46
2023/10/09 03:41:54;;;;;;;5.60;2.63;;;;;;;16.04;61.38;100639.22;5075422;28;20047;-50
2023/10/09 03:44:21;;;;;;;7.28;3.45;;;;;;;16.03;62.47;100627.06;5073765;28;20439;-47
2023/10/09 03:46:51;;;;;;;7.30;2.95;;;;;;;16.02;62.24;100627.97;5074872;28;20048;-46
2023/10/09 03:49:23;;;;;;;6.10;2.50;;;;;;;16.02;62.02;100630.56;5073701;28;20127;-49
2023/10/09 03:51:50;;;;;;;5.38;2.70;;;;;;;16.00;62.01;100633.22;5061992;28;20057;-45
2023/10/09 03:54:22;;;;;;;6.65;2.88;;;;;;;16.01;61.99;100634.09;5066023;28;20052;-46
2023/10/09 03:56:49;;;;;;;8.32;3.25;;;;;;;16.00;62.05;100635.81;5072020;28;20079;-45
2023/10/09 03:59:19;;;;;;;4.25;2.58;;;;;;;15.99;61.90;100622.78;5072954;28;20044;-46
2023/10/09 04:01:50;;;;;;;;;;;;;;;15.82;62.16;100618.66;5072080;28;20469;-44
2023/10/09 04:04:18;;;;;;;6.65;2.50;;;;;;;15.94;62.44;100618.47;5072745;28;20015;-45
2023/10/09 04:06:46;;;;;;;5.57;2.78;;;;;;;15.96;62.03;100621.09;5066254;28;20124;-49
2023/10/09 04:09:28;;;;;;;8.50;3.13;;;;;;;15.97;61.91;100616.72;5055154;28;20094;-49
2023/10/09 04:14:49;;;;;;;6.50;3.10;;;;;;;15.94;62.21;100636.75;5091785;27;20390;-47
2023/10/09 04:23:04;;;;;;;6.47;4.63;;;;;;;15.93;62.45;100658.53;5046167;28;20427;-48
2023/10/09 04:25:50;;;;;;;7.00;4.85;;;;;;;15.92;62.04;100651.59;5054380;28;20056;-49
2023/10/09 04:28:18;;;;;;;7.18;4.20;;;;;;;15.92;62.02;100651.59;5057468;28;20486;-49
2023/10/09 04:30:53;;;;;;;6.70;4.00;;;;;;;15.92;62.10;100643.75;5060691;28;20562;-47
2023/10/09 04:36:22;;;;;;;7.20;3.38;;;;;;;15.90;62.13;100627.22;5055826;28;20395;-46
2023/10/09 04:39:15;;;;;;;7.30;3.60;;;;;;;15.91;61.86;100641.16;5038580;28;20052;-50
2023/10/09 04:44:22;;;;;;;6.93;2.85;;;;;;;15.89;62.13;100658.59;5102431;27;20393;-49
2023/10/09 04:55:19;;;;;;;8.70;3.83;;;;;;;15.86;62.50;100641.22;5049835;27;20397;-49
2023/10/09 04:58:00;;;;;;;6.85;2.35;;;;;;;15.85;62.17;100644.72;5058549;28;20494;-50
2023/10/09 05:03:25;;;;;;;6.07;2.58;;;;;;;15.84;62.42;100642.16;5056374;28;20412;-53
2023/10/09 05:05:59;;;;;;;5.78;2.58;;;;;;;15.81;62.58;100654.34;5055164;28;20041;-49
2023/10/09 05:16:18;;;;;;;8.98;4.38;;;;;;;15.79;62.70;100647.44;5055743;28;20407;-51
2023/10/09 05:21:36;;;;;;;7.72;3.80;;;;;;;15.80;62.74;100657.84;5053765;28;20056;-48
2023/10/09 05:29:48;;;;;;;7.15;2.83;;;;;;;15.85;62.47;100676.09;5156704;27;20386;-48
2023/10/09 05:35:07;;;;;;;8.40;4.65;;;;;;;15.85;62.25;100670.84;5105484;27;20385;-45
2023/10/09 05:37:34;;;;;;;8.23;5.05;;;;;;;15.84;62.55;100673.50;5088759;28;20040;-49
2023/10/09 05:42:59;;;;;;;8.35;4.40;;;;;;;15.83;63.04;100672.63;5069266;28;20051;-47
2023/10/09 05:46:07;;;;;;;8.10;4.45;;;;;;;15.83;62.74;100677.84;5103292;28;20131;-47
2023/10/09 06:04:57;;;;;;;6.60;3.42;;;;;;;15.80;63.04;100663.06;5082894;28;20036;-45
2023/10/09 06:07:40;;;;;;;7.82;4.07;;;;;;;15.79;62.58;100679.66;5084073;28;20518;-55
2023/10/09 06:10:32;;;;;;;7.40;2.97;;;;;;;15.78;63.02;100690.09;5073043;28;20052;-50
2023/10/09 06:13:03;;;;;;;6.00;2.67;;;;;;;15.77;62.85;100667.50;5081640;28;20059;-49
2023/10/09 06:16:09;;;;;;;8.18;2.92;;;;;;;15.76;63.03;100655.31;5081108;28;20397;-48
2023/10/09 06:18:32;;;;;;;8.00;3.25;;;;;;;15.76;63.00;100656.19;5095700;28;20133;-46
2023/10/09 06:26:33;;;;;;;5.97;2.78;;;;;;;15.74;63.33;100683.19;5078762;28;20050;-49
2023/10/09 06:29:16;;;;;;;5.88;2.67;;;;;;;15.72;63.35;100670.16;5082683;28;20111;-49
2023/10/09 06:31:59;;;;;;;6.80;2.72;;;;;;;15.72;63.30;100669.28;5078511;28;20052;-50
2023/10/09 06:34:35;;;;;;;4.75;2.30;;;;;;;15.71;63.39;100670.19;5082004;28;20044;-48
2023/10/09 06:45:16;;;;;;;6.35;4.05;;;;;;;15.68;63.68;100700.66;5096004;27;20400;-49
2023/10/09 06:53:28;;;;;;;9.55;4.60;;;;;;;15.71;63.78;100698.91;5083409;28;20139;-49
2023/10/09 06:56:05;;;;;;;8.05;4.28;;;;;;;15.74;63.88;100688.44;5087861;28;20130;-53
2023/10/09 06:58:48;;;;;;;9.57;5.13;;;;;;;15.76;63.63;100691.88;5099740;28;20130;-50
2023/10/09 07:05:10;;;;;;;9.55;4.70;;;;;;;15.79;63.74;100712.72;5067148;28;20059;-51
2023/10/09 07:07:50;;;;;;;6.50;4.80;;;;;;;15.81;63.83;100719.66;5089059;28;20748;-46
2023/10/09 07:10:39;;;;;;;6.93;4.93;;;;;;;15.84;64.25;100728.34;5076775;28;20052;-51
2023/10/09 07:13:03;;;;;;;8.50;4.35;;;;;;;15.85;64.00;100723.09;5091430;28;20053;-47
2023/10/09 07:18:19;;;;;;;8.00;4.38;;;;;;;15.88;64.12;100717.81;5092601;28;20052;-50
2023/10/09 07:20:58;;;;;;;7.38;4.28;;;;;;;15.89;64.07;100716.94;5097660;28;20438;-49
2023/10/09 07:23:32;;;;;;;8.73;4.13;;;;;;;15.90;63.95;100723.88;5097369;28;20082;-48
2023/10/09 07:26:17;;;;;;;7.88;4.45;;;;;;;15.92;64.38;100724.75;5101602;28;20074;-45
2023/10/09 07:28:48;;;;;;;8.23;4.38;;;;;;;15.94;64.21;100733.41;5084651;28;20062;-46
2023/10/09 07:31:24;;;;;;;9.65;4.53;;;;;;;15.96;63.97;100729.94;5100158;28;20108;-49
2023/10/09 07:33:56;;;;;;;;;;;;;;;15.85;64.53;100738.75;5095346;28;20047;-46
2023/10/09 07:36:40;;;;;;;8.88;5.05;;;;;;;15.98;64.50;100739.50;5089987;28;19920;-53
2023/10/09 07:39:16;;;;;;;10.35;4.43;;;;;;;16.04;63.97;100735.91;5097254;28;20052;-48
2023/10/09 07:41:55;;;;;;;7.45;3.65;;;;;;;16.09;64.85;100738.47;5059342;28;20409;-47
2023/10/09 07:44:38;;;;;;;6.60;4.90;;;;;;;16.13;64.26;100722.72;5078579;28;20123;-47
2023/10/09 07:49:53;;;;;;;8.45;4.82;;;;;;;16.30;65.01;100740.75;5095714;28;20129;-45
2023/10/09 07:52:21;;;;;;;9.23;4.55;;;;;;;16.38;64.55;100737.16;5095142;27;20055;-48
2023/10/09 07:54:52;;;;;;;10.55;4.93;;;;;;;16.45;64.02;100737.03;5090118;28;20047;-45
2023/10/09 07:57:25;;;;;;;8.02;5.10;;;;;;;16.56;64.56;100736.00;5055866;28;20048;-46
2023/10/09 08:00:00;;;;;;;8.13;3.88;;;;;;;16.64;64.02;100751.53;5073561;28;20393;-46
2023/10/09 08:02:31;;;;;;;9.32;4.53;;;;;;;16.74;64.05;100760.97;5089162;28;20040;-47
2023/10/09 08:07:25;;;;;;;7.65;4.65;;;;;;;17.00;64.09;100761.41;5064999;28;20044;-46
2023/10/09 08:15:34;;;;;;;7.03;3.60;;;;;;;17.46;63.98;100743.97;5026299;28;20923;-47
2023/10/09 08:18:09;;;;;;;8.75;3.47;;;;;;;17.61;63.61;100737.56;5021490;28;20551;-48
2023/10/09 08:26:14;;;;;;;7.82;3.40;;;;;;;18.08;63.35;100747.03;5011703;28;20050;-51
2023/10/09 08:28:42;;;;;;;7.88;3.20;;;;;;;18.28;62.27;100756.22;5016892;28;20050;-50
2023/10/09 08:31:19;;;;;;;13.20;4.13;;;;;;;18.39;62.60;100761.19;5022131;28;20057;-48
2023/10/09 08:33:56;;;;;;;6.95;2.70;;;;;;;18.44;62.63;100769.84;5016592;28;20053;-47
2023/10/09 08:36:36;;;;;;;9.73;3.83;;;;;;;18.55;62.19;100774.81;5020107;28;20057;-47
2023/10/09 08:39:33;;;;;;;8.35;3.60;;;;;;;18.69;62.59;100767.47;5012690;28;20580;-49
2023/10/09 08:41:52;;;;;;;10.05;4.05;;;;;;;18.93;62.14;100762.47;5000741;28;20132;-48
2023/10/09 08:44:23;;;;;;;7.88;3.20;;;;;;;19.32;61.98;100766.72;5014567;28;20140;-48
2023/10/09 08:46:50;;;;;;;8.88;3.33;;;;;;;19.76;61.74;100771.59;5011490;28;20058;-51
2023/10/09 08:49:18;;;;;;;12.05;3.45;;;;;;;20.32;60.73;100774.31;5016764;28;20069;-47
2023/10/09 08:51:46;;;;;;;12.75;4.20;;;;;;;20.75;59.57;100782.59;5016847;28;20136;-48
2023/10/09 08:54:14;;;;;;;8.63;3.33;;;;;;;20.96;58.64;100785.41;5017262;28;20635;-48
2023/10/09 08:56:49;;;;;;;8.23;4.30;;;;;;;20.93;58.43;100777.63;5008367;28;20093;-51
2023/10/09 08:59:18;;;;;;;8.98;3.40;;;;;;;20.79;58.54;100778.94;5012822;28;20133;-48
2023/10/09 09:01:49;;;;;;;10.52;3.50;;;;;;;20.66;59.16;100772.34;5008744;28;20468;-48
2023/10/09 09:04:40;;;;;;;15.93;3.80;;;;;;;20.52;59.10;100767.56;5014687;28;20058;-49
2023/10/09 09:07:25;;;;;;;11.27;3.65;;;;;;;20.51;59.24;100764.06;5002506;28;20051;-50
2023/10/09 09:09:57;;;;;;;14.52;3.53;;;;;;;20.54;59.31;100771.00;5003325;28;20486;-48
2023/10/09 09:12:28;;;;;;;8.88;3.65;;;;;;;20.49;59.02;100771.16;4998481;28;20073;-49
2023/10/09 09:14:58;;;;;;;11.68;4.18;;;;;;;20.42;59.33;100782.78;5005394;28;20069;-51
2023/10/09 09:17:32;;;;;;;8.80;3.75;;;;;;;20.36;59.21;100783.84;5006166;28;20058;-49
2023/10/09 09:19:59;;;;;;;8.52;3.22;;;;;;;20.39;59.58;100782.88;4999646;28;20105;-47
2023/10/09 09:22:26;;;;;;;6.88;3.38;;;;;;;20.44;59.67;100780.09;4991247;28;20073;-50
2023/10/09 09:25:03;;;;;;;10.82;4.03;;;;;;;20.63;59.54;100780.34;4998582;28;20053;-48
2023/10/09 09:28:09;;;;;;;11.07;3.20;;;;;;;20.70;59.58;100781.84;4989277;28;20101;-49
2023/10/09 09:30:33;;;;;;;7.88;3.05;;;;;;;20.68;59.48;100799.50;4983482;28;20051;-52
2023/10/09 09:33:26;;;;;;;9.95;3.78;;;;;;;20.59;59.12;100794.50;4983064;28;20102;-47
2023/10/09 09:38:42;;;;;;;8.90;4.22;;;;;;;20.38;59.33;100795.19;5011878;28;20412;-50
2023/10/09 09:41:09;;;;;;;9.57;4.43;;;;;;;20.28;59.61;100791.13;4994494;28;20054;-47
2023/10/09 09:43:40;;;;;;;8.40;4.20;;;;;;;20.21;59.79;100789.59;4992729;28;20050;-49
2023/10/09 09:46:11;;;;;;;8.35;4.47;;;;;;;20.11;59.87;100783.75;5002066;28;20054;-49
2023/10/09 09:48:44;;;;;;;8.40;4.25;;;;;;;20.06;60.08;100783.03;4997024;28;20054;-47
2023/10/09 09:51:13;;;;;;;8.73;3.83;;;;;;;20.06;59.87;100785.69;4998238;28;20137;-48
2023/10/09 09:53:40;;;;;;;;;;;;;;;19.95;60.81;100789.44;5000797;28;20583;-52
2023/10/09 09:56:13;;;;;;;9.10;4.22;;;;;;;20.05;60.44;100784.81;4996162;28;19947;-50
2023/10/09 09:58:43;;;;;;;9.55;4.13;;;;;;;20.09;60.31;100781.16;5002105;28;20050;-47
2023/10/09 10:01:16;;;;;;;8.50;4.47;;;;;;;20.10;60.34;100777.63;4992997;28;20065;-50
2023/10/09 10:03:49;;;;;;;9.10;5.03;;;;;;;20.16;60.61;100777.44;5000031;28;20081;-48
2023/10/09 10:06:20;;;;;;;10.75;4.68;;;;;;;20.20;60.02;100767.69;4994300;28;20248;-50
2023/10/09 10:08:51;;;;;;;9.55;4.32;;;;;;;20.24;60.54;100785.09;4981433;28;20069;-47
2023/10/09 10:11:47;;;;;;;10.40;4.25;;;;;;;20.25;60.44;100792.06;4984372;28;20133;-50
2023/10/09 10:14:28;;;;;;;9.82;4.00;;;;;;;20.38;60.30;100786.41;4990161;28;20043;-47
2023/10/09 10:17:16;;;;;;;11.13;4.10;;;;;;;20.50;60.28;100785.19;4992575;28;20049;-50
2023/10/09 10:22:47;;;;;;;11.40;6.30;;;;;;;21.40;60.80;100775.97;5040756;27;20907;-45
2023/10/09 10:28:42;;;;;;;9.02;4.05;;;;;;;23.29;58.96;100781.69;5056253;27;20392;-47
2023/10/09 10:31:11;;;;;;;10.52;3.70;;;;;;;23.92;57.25;100774.47;4995630;28;20081;-47
2023/10/09 10:36:29;;;;;;;10.95;4.25;;;;;;;24.86;55.16;100784.09;5039643;27;20440;-51
2023/10/09 10:39:10;;;;;;;12.60;4.93;;;;;;;25.18;55.09;100780.69;5019187;28;20041;-47
2023/10/09 10:41:50;;;;;;;12.82;4.38;;;;;;;25.54;54.02;100772.53;5023092;28;20095;-47
2023/10/09 10:47:21;;;;;;;18.60;4.22;;;;;;;26.17;52.59;100764.69;5068255;27;20779;-48
2023/10/09 10:49:50;;;;;;;10.32;3.97;;;;;;;26.37;52.27;100762.72;5052437;28;20052;-52
2023/10/09 10:52:35;;;;;;;7.88;4.18;;;;;;;26.58;52.12;100766.88;5060889;28;20114;-50
2023/10/09 10:55:48;;;;;;;13.32;4.72;;;;;;;26.69;51.38;100765.25;5061654;28;20051;-46
2023/10/09 10:58:23;;;;;;;11.18;4.47;;;;;;;26.63;51.09;100775.41;5070808;28;20180;-50
2023/10/09 11:03:54;;;;;;;10.13;5.32;;;;;;;26.73;50.16;100775.72;5094215;27;20772;-46
2023/10/09 11:06:37;;;;;;;10.40;5.47;;;;;;;26.69;50.31;100775.88;5050821;28;21079;-50
2023/10/09 11:09:23;;;;;;;11.70;6.07;;;;;;;26.57;50.87;100766.00;5038401;28;20457;-50
2023/10/09 11:11:55;;;;;;;9.68;4.32;;;;;;;26.39;50.34;100779.44;5041838;28;20052;-49
2023/10/09 11:14:23;;;;;;;10.25;4.22;;;;;;;26.26;50.84;100778.38;5041365;28;20066;-50
2023/10/09 11:16:51;;;;;;;10.60;5.00;;;;;;;26.22;50.44;100772.41;5044892;28;20076;-50
2023/10/09 11:19:28;;;;;;;12.38;4.15;;;;;;;26.23;50.90;100768.78;5035701;28;20052;-49
2023/10/09 11:21:58;;;;;;;8.68;3.85;;;;;;;26.17;50.67;100772.66;5069431;28;20061;-50
2023/10/09 11:24:33;;;;;;;9.30;3.08;;;;;;;26.15;51.22;100771.91;5053381;28;20153;-48
2023/10/09 11:27:05;;;;;;;32.58;8.00;;;;;;;26.15;51.23;100765.72;5042957;28;20106;-47
2023/10/09 11:32:22;;;;;;;10.00;4.95;;;;;;;26.37;51.38;100754.75;5074152;27;20419;-52
2023/10/09 11:34:51;;;;;;;11.95;5.18;;;;;;;26.36;51.27;100758.34;5059046;28;20052;-46
2023/10/09 11:40:23;;;;;;;12.93;5.68;;;;;;;26.62;51.66;100752.44;5057530;28;20053;-52
2023/10/09 11:42:50;;;;;;;10.82;5.55;;;;;;;26.75;50.74;100760.53;5081885;28;20091;-50
2023/10/09 11:48:21;;;;;;;10.45;5.43;;;;;;;26.81;50.15;100760.16;4998919;28;20897;-48
2023/10/09 11:50:54;;;;;;;10.52;4.05;;;;;;;26.75;50.07;100753.41;4978265;28;20050;-50
2023/10/09 11:55:59;;;;;;;8.43;3.58;;;;;;;26.67;50.35;100748.56;5019570;28;20428;-51
2023/10/09 11:58:26;;;;;;;12.95;3.97;;;;;;;26.64;50.99;100739.94;5000753;28;20049;-47
2023/10/09 12:01:16;;;;;;;12.00;3.60;;;;;;;26.59;50.90;100737.56;5001758;28;20081;-49
2023/10/09 12:03:42;;;;;;;15.80;4.00;;;;;;;26.56;51.22;100725.31;5005057;28;20053;-47
2023/10/09 12:06:12;;;;;;;7.63;3.83;;;;;;;26.63;51.22;100722.28;4984094;28;20043;-51
2023/10/09 12:08:40;;;;;;;7.80;4.07;;;;;;;26.63;51.24;100728.44;4978777;28;20047;-49
2023/10/09 12:11:09;;;;;;;8.45;3.95;;;;;;;26.64;51.09;100722.19;4987613;28;20507;-47
2023/10/09 12:13:38;;;;;;;12.10;5.28;;;;;;;26.69;51.31;100717.44;4984216;28;20046;-51
2023/10/09 12:16:09;;;;;;;11.77;4.75;;;;;;;26.79;51.32;100723.09;4980306;28;20520;-48
2023/10/09 12:18:40;;;;;;;10.65;5.13;;;;;;;26.91;50.61;100708.16;4979341;28;20495;-51
2023/10/09 12:21:08;;;;;;;10.30;4.10;;;;;;;27.03;50.38;100719.03;4975742;28;20093;-50
2023/10/09 12:23:35;;;;;;;10.05;3.42;;;;;;;27.18;50.15;100714.53;4984348;28;20050;-47
2023/10/09 12:26:04;;;;;;;11.07;3.95;;;;;;;27.32;50.54;100711.03;4980228;28;20042;-48
2023/10/09 12:28:32;;;;;;;10.60;4.43;;;;;;;27.45;50.85;100709.31;4978860;28;20055;-50
2023/10/09 12:31:03;;;;;;;13.32;3.70;;;;;;;27.52;50.08;100715.06;4981400;28;20054;-47
2023/10/09 12:33:30;;;;;;;9.30;3.70;;;;;;;27.54;50.21;100713.19;4979842;28;20133;-49
2023/10/09 12:36:01;;;;;;;6.68;3.38;;;;;;;27.59;49.70;100720.84;4979869;28;20125;-57
2023/10/09 12:38:32;;;;;;;12.38;4.55;;;;;;;27.62;49.49;100718.00;4982957;28;20057;-53
2023/10/09 12:41:19;;;;;;;8.10;4.25;;;;;;;27.65;49.90;100717.84;4985784;28;20054;-47
2023/10/09 12:43:51;;;;;;;9.65;5.25;;;;;;;27.71;49.61;100705.94;4986688;28;20134;-47
2023/10/09 12:46:22;;;;;;;8.40;3.38;;;;;;;27.73;49.68;100711.16;4982275;28;20065;-49
2023/10/09 12:48:50;;;;;;;11.55;3.90;;;;;;;27.78;50.45;100712.56;4979729;28;20814;-50
2023/10/09 12:51:17;;;;;;;9.38;3.78;;;;;;;27.80;50.39;100701.84;4982322;28;20498;-49
2023/10/09 12:53:45;;;;;;;12.50;4.45;;;;;;;27.79;50.26;100705.47;4984595;28;20046;-47
2023/10/09 12:56:12;;;;;;;9.55;4.13;;;;;;;27.80;50.20;100697.34;4981556;28;20043;-48
2023/10/09 12:58:39;;;;;;;10.25;3.80;;;;;;;27.78;49.25;100698.41;4984562;28;20042;-49
2023/10/09 13:01:09;;;;;;;8.52;3.75;;;;;;;27.73;49.60;100695.19;4978694;28;20073;-47
2023/10/09 13:03:38;;;;;;;10.27;3.50;;;;;;;27.69;49.17;100695.41;4972800;28;20097;-52
2023/10/09 13:06:10;;;;;;;7.13;3.10;;;;;;;27.64;50.13;100697.50;4974287;28;20106;-49
2023/10/09 13:08:40;;;;;;;8.57;3.03;;;;;;;27.63;50.74;100692.28;4961916;28;20093;-49
2023/10/09 13:11:10;;;;;;;7.75;2.72;;;;;;;27.63;50.04;100686.97;4966821;28;20097;-47
2023/10/09 13:13:40;;;;;;;11.02;3.38;;;;;;;27.61;50.39;100692.34;4969918;28;20074;-52
2023/10/09 13:16:11;;;;;;;10.30;3.30;;;;;;;27.53;49.93;100694.66;4969817;28;20121;-48
2023/10/09 13:18:39;;;;;;;10.68;3.50;;;;;;;27.39;49.67;100688.41;4966773;28;20133;-47
2023/10/09 13:21:06;;;;;;;7.63;3.42;;;;;;;27.25;50.43;100688.44;4965369;28;20113;-50
2023/10/09 13:23:46;;;;;;;13.77;3.92;;;;;;;27.11;50.63;100679.53;4968137;28;20057;-48
2023/10/09 13:26:17;;;;;;;11.10;3.63;;;;;;;26.98;50.85;100675.94;4961188;28;20043;-47
2023/10/09 13:28:59;;;;;;;8.88;3.78;;;;;;;26.84;51.04;100677.59;4966293;28;20138;-49
2023/10/09 13:31:27;;;;;;;8.15;3.70;;;;;;;26.73;50.47;100674.75;4952958;28;20712;-46
2023/10/09 13:33:55;;;;;;;8.13;4.25;;;;;;;26.58;50.89;100669.44;4970528;28;20051;-50
2023/10/09 13:36:26;;;;;;;15.38;4.75;;;;;;;26.51;51.39;100673.41;4970672;28;20479;-49
2023/10/09 13:38:55;;;;;;;10.18;4.43;;;;;;;26.38;51.80;100676.78;4977070;28;20180;-47
2023/10/09 13:41:25;;;;;;;10.05;4.82;;;;;;;26.32;51.83;100677.16;4964759;28;20046;-49
2023/10/09 13:43:52;;;;;;;14.55;5.18;;;;;;;26.26;51.93;100674.84;4961964;28;20141;-46
2023/10/09 13:46:19;;;;;;;12.75;6.05;;;;;;;26.18;52.13;100673.47;4965660;28;20051;-47
2023/10/09 13:48:49;;;;;;;14.30;5.22;;;;;;;26.11;52.18;100669.47;4968798;28;20102;-51
2023/10/09 13:51:23;;;;;;;12.73;4.72;;;;;;;26.04;52.41;100662.84;4965834;28;20057;-49
2023/10/09 13:53:50;;;;;;;11.98;4.72;;;;;;;26.01;53.15;100661.19;4961235;28;20058;-51
2023/10/09 13:56:19;;;;;;;12.00;5.07;;;;;;;26.01;52.66;100660.38;4962946;28;20055;-48
2023/10/09 14:01:28;;;;;;;16.23;5.20;;;;;;;25.99;53.28;100643.66;5103025;27;20379;-50
2023/10/09 14:03:57;;;;;;;14.85;4.20;;;;;;;25.99;53.42;100638.34;5056578;28;20107;-51
2023/10/09 14:06:30;;;;;;;12.15;4.78;;;;;;;25.97;53.57;100634.97;5056746;28;20052;-48
2023/10/09 14:09:05;;;;;;;12.48;3.97;;;;;;;25.95;53.19;100634.19;5091219;28;20044;-49
2023/10/09 14:11:32;;;;;;;11.80;4.70;;;;;;;25.93;53.58;100634.25;5101215;28;20047;-49
2023/10/09 14:14:00;;;;;;;11.80;3.80;;;;;;;25.93;53.53;100639.56;5101052;28;20428;-50
2023/10/09 14:16:37;;;;;;;12.48;4.70;;;;;;;25.91;53.25;100631.69;5102085;28;20047;-49
2023/10/09 14:19:07;;;;;;;8.85;3.70;;;;;;;25.91;53.51;100631.69;5099171;28;20062;-47